createdAt,value
2022-12-18T00:00:32.955Z,-13
2022-12-18T00:01:33.107Z,-13
2022-12-18T00:02:33.074Z,-13
2022-12-18T00:03:33.045Z,-13.1
2022-12-18T00:04:32.950Z,-13.1
2022-12-18T00:05:32.935Z,-13.1
2022-12-18T00:06:32.977Z,-13.2
2022-12-18T00:07:33.046Z,-13.2
2022-12-18T00:08:32.948Z,-13.3
2022-12-18T00:09:39.182Z,-13.3
2022-12-18T00:10:32.959Z,-13.3
2022-12-18T00:11:33.019Z,-13.4
2022-12-18T00:12:32.956Z,-13.4
2022-12-18T00:13:32.993Z,-13.4
2022-12-18T00:14:32.984Z,-13.4
2022-12-18T00:15:32.987Z,-13.4
2022-12-18T00:16:33.004Z,-13.4
2022-12-18T00:17:33.015Z,-13.4
2022-12-18T00:18:32.986Z,-13.4
2022-12-18T00:19:33.047Z,-13.3
2022-12-18T00:20:33.014Z,-13.3
2022-12-18T00:21:33.062Z,-13.2
2022-12-18T00:22:33.015Z,-13.2
2022-12-18T00:23:33.012Z,-13.1
2022-12-18T00:24:33.022Z,-13.1
2022-12-18T00:25:33.086Z,-13
2022-12-18T00:26:33.034Z,-13
2022-12-18T00:27:33.044Z,-12.9
2022-12-18T00:28:33.047Z,-12.9
2022-12-18T00:29:33.000Z,-12.9
2022-12-18T00:30:33.057Z,-12.9
2022-12-18T00:31:33.117Z,-13
2022-12-18T00:32:33.036Z,-13
2022-12-18T00:33:33.124Z,-13
2022-12-18T00:34:33.023Z,-13.1
2022-12-18T00:35:33.025Z,-13.1
2022-12-18T00:36:33.064Z,-13.1
2022-12-18T00:37:33.024Z,-13.2
2022-12-18T00:38:33.046Z,-13.2
2022-12-18T00:39:33.083Z,-13.2
2022-12-18T00:40:33.130Z,-13.2
2022-12-18T00:41:33.097Z,-13.2
2022-12-18T00:42:33.049Z,-13.2
2022-12-18T00:43:33.086Z,-13.2
2022-12-18T00:44:33.058Z,-13.2
2022-12-18T00:45:33.156Z,-13.2
2022-12-18T00:46:33.083Z,-13.2
2022-12-18T00:47:33.052Z,-13.2
2022-12-18T00:48:33.050Z,-13.3
2022-12-18T00:49:33.091Z,-13.3
2022-12-18T00:50:33.055Z,-13.3
2022-12-18T00:51:33.116Z,-13.3
2022-12-18T00:52:33.103Z,-13.4
2022-12-18T00:53:33.160Z,-13.4
2022-12-18T00:54:33.103Z,-13.4
2022-12-18T00:55:33.364Z,-13.5
2022-12-18T00:56:33.095Z,-13.5
2022-12-18T00:57:33.157Z,-13.5
2022-12-18T00:58:33.162Z,-13.6
2022-12-18T00:59:33.129Z,-13.6
2022-12-18T01:00:33.172Z,-13.6
2022-12-18T01:01:33.344Z,-13.6
2022-12-18T01:02:33.243Z,-13.6
2022-12-18T01:03:33.112Z,-13.6
2022-12-18T01:04:33.132Z,-13.6
2022-12-18T01:05:33.152Z,-13.6
2022-12-18T01:06:33.161Z,-13.6
2022-12-18T01:07:33.175Z,-13.6
2022-12-18T01:08:33.154Z,-13.6
2022-12-18T01:09:33.185Z,-13.6
2022-12-18T01:10:33.179Z,-13.6
2022-12-18T01:11:33.181Z,-13.6
2022-12-18T01:12:33.153Z,-13.6
2022-12-18T01:13:33.158Z,-13.6
2022-12-18T01:14:33.143Z,-13.6
2022-12-18T01:15:33.175Z,-13.6
2022-12-18T01:16:33.217Z,-13.6
2022-12-18T01:17:33.232Z,-13.6
2022-12-18T01:18:33.135Z,-13.6
2022-12-18T01:19:33.246Z,-13.5
2022-12-18T01:20:33.175Z,-13.5
2022-12-18T01:21:33.225Z,-13.5
2022-12-18T01:22:33.185Z,-13.5
2022-12-18T01:23:33.193Z,-13.5
2022-12-18T01:24:33.198Z,-13.5
2022-12-18T01:25:33.253Z,-13.5
2022-12-18T01:26:33.263Z,-13.5
2022-12-18T01:27:33.224Z,-13.5
2022-12-18T01:28:33.208Z,-13.5
2022-12-18T01:29:33.184Z,-13.5
2022-12-18T01:30:33.185Z,-13.5
2022-12-18T01:31:33.303Z,-13.5
2022-12-18T01:32:33.215Z,-13.6
2022-12-18T01:33:33.301Z,-13.6
2022-12-18T01:34:33.206Z,-13.6
2022-12-18T01:35:33.262Z,-13.6
2022-12-18T01:36:33.277Z,-13.6
2022-12-18T01:37:33.217Z,-13.6
2022-12-18T01:38:33.267Z,-13.6
2022-12-18T01:39:33.283Z,-13.6
2022-12-18T01:40:33.218Z,-13.5
2022-12-18T01:41:33.218Z,-13.5
2022-12-18T01:42:33.278Z,-13.5
2022-12-18T01:43:33.224Z,-13.5
2022-12-18T01:44:33.224Z,-13.5
2022-12-18T01:45:33.293Z,-13.5
2022-12-18T01:46:33.274Z,-13.5
2022-12-18T01:47:33.226Z,-13.5
2022-12-18T01:48:33.231Z,-13.5
2022-12-18T01:49:33.224Z,-13.5
2022-12-18T01:50:33.242Z,-13.5
2022-12-18T01:51:33.275Z,-13.5
2022-12-18T01:52:33.224Z,-13.5
2022-12-18T01:53:33.237Z,-13.5
2022-12-18T01:54:33.236Z,-13.5
2022-12-18T01:55:33.240Z,-13.5
2022-12-18T01:56:33.259Z,-13.5
2022-12-18T01:57:33.230Z,-13.5
2022-12-18T01:58:33.230Z,-13.5
2022-12-18T01:59:33.335Z,-13.5
2022-12-18T02:00:33.238Z,-13.5
2022-12-18T02:01:33.419Z,-13.5
2022-12-18T02:02:33.287Z,-13.6
2022-12-18T02:03:33.273Z,-13.6
2022-12-18T02:04:33.278Z,-13.6
2022-12-18T02:05:33.235Z,-13.6
2022-12-18T02:06:33.260Z,-13.6
2022-12-18T02:07:33.239Z,-13.6
2022-12-18T02:08:33.231Z,-13.6
2022-12-18T02:09:33.281Z,-13.6
2022-12-18T02:10:33.237Z,-13.7
2022-12-18T02:11:33.289Z,-13.7
2022-12-18T02:12:33.383Z,-13.7
2022-12-18T02:13:33.338Z,-13.7
2022-12-18T02:14:33.235Z,-13.8
2022-12-18T02:15:33.366Z,-13.8
2022-12-18T02:16:33.354Z,-13.8
2022-12-18T02:17:33.315Z,-13.8
2022-12-18T02:18:33.292Z,-13.8
2022-12-18T02:19:33.276Z,-13.8
2022-12-18T02:20:33.317Z,-13.8
2022-12-18T02:21:33.312Z,-13.8
2022-12-18T02:22:33.269Z,-13.8
2022-12-18T02:23:33.369Z,-13.8
2022-12-18T02:24:33.290Z,-13.8
2022-12-18T02:25:33.793Z,-13.8
2022-12-18T02:26:33.351Z,-13.8
2022-12-18T02:27:33.308Z,-13.8
2022-12-18T02:28:33.490Z,-13.8
2022-12-18T02:29:33.295Z,-13.8
2022-12-18T02:30:33.342Z,-13.8
2022-12-18T02:31:33.345Z,-13.8
2022-12-18T02:32:33.343Z,-13.8
2022-12-18T02:33:33.357Z,-13.8
2022-12-18T02:34:33.338Z,-13.8
2022-12-18T02:35:33.337Z,-13.8
2022-12-18T02:36:33.352Z,-13.8
2022-12-18T02:37:33.348Z,-13.8
2022-12-18T02:38:33.340Z,-13.8
2022-12-18T02:39:33.340Z,-13.8
2022-12-18T02:40:33.370Z,-13.8
2022-12-18T02:41:33.351Z,-13.8
2022-12-18T02:42:33.347Z,-13.7
2022-12-18T02:43:33.348Z,-13.7
2022-12-18T02:44:33.475Z,-13.7
2022-12-18T02:45:33.374Z,-13.7
2022-12-18T02:46:33.350Z,-13.7
2022-12-18T02:47:33.341Z,-13.7
2022-12-18T02:48:33.345Z,-13.7
2022-12-18T02:49:33.384Z,-13.8
2022-12-18T02:50:33.352Z,-13.8
2022-12-18T02:51:33.395Z,-13.8
2022-12-18T02:52:33.346Z,-13.8
2022-12-18T02:53:33.346Z,-13.9
2022-12-18T02:54:33.383Z,-13.9
2022-12-18T02:55:33.423Z,-14
2022-12-18T02:56:33.408Z,-14
2022-12-18T02:57:33.367Z,-14
2022-12-18T02:58:33.372Z,-14
2022-12-18T02:59:33.420Z,-14.1
2022-12-18T03:00:33.554Z,-14.1
2022-12-18T03:01:33.520Z,-14.1
2022-12-18T03:02:33.594Z,-14.1
2022-12-18T03:03:33.467Z,-14.1
2022-12-18T03:04:33.380Z,-14.2
2022-12-18T03:05:33.425Z,-14.2
2022-12-18T03:06:33.415Z,-14.2
2022-12-18T03:07:33.487Z,-14.2
2022-12-18T03:08:33.404Z,-14.2
2022-12-18T03:09:33.403Z,-14.3
2022-12-18T03:10:33.412Z,-14.3
2022-12-18T03:11:33.447Z,-14.3
2022-12-18T03:12:33.409Z,-14.3
2022-12-18T03:13:33.441Z,-14.3
2022-12-18T03:14:33.442Z,-14.3
2022-12-18T03:15:33.409Z,-14.3
2022-12-18T03:16:33.681Z,-14.3
2022-12-18T03:17:33.404Z,-14.2
2022-12-18T03:18:33.408Z,-14.2
2022-12-18T03:19:33.422Z,-14.1
2022-12-18T03:20:33.468Z,-14.1
2022-12-18T03:21:33.524Z,-14.1
2022-12-18T03:22:33.484Z,-14
2022-12-18T03:23:33.451Z,-14
2022-12-18T03:24:33.449Z,-13.9
2022-12-18T03:25:33.456Z,-13.8
2022-12-18T03:26:33.491Z,-13.8
2022-12-18T03:27:33.460Z,-13.7
2022-12-18T03:28:33.448Z,-13.7
2022-12-18T03:29:33.447Z,-13.7
2022-12-18T03:30:33.568Z,-13.7
2022-12-18T03:31:33.511Z,-13.7
2022-12-18T03:32:33.587Z,-13.7
2022-12-18T03:33:33.510Z,-13.8
2022-12-18T03:34:33.467Z,-13.8
2022-12-18T03:35:33.467Z,-13.9
2022-12-18T03:36:33.529Z,-13.9
2022-12-18T03:37:33.478Z,-14
2022-12-18T03:38:33.466Z,-14
2022-12-18T03:39:33.468Z,-14
2022-12-18T03:40:33.471Z,-14.1
2022-12-18T03:41:33.584Z,-14.1
2022-12-18T03:42:33.510Z,-14.1
2022-12-18T03:43:33.490Z,-14.2
2022-12-18T03:44:33.533Z,-14.2
2022-12-18T03:45:33.588Z,-14.2
2022-12-18T03:46:33.570Z,-14.2
2022-12-18T03:47:33.577Z,-14.3
2022-12-18T03:48:33.635Z,-14.3
2022-12-18T03:49:33.512Z,-14.3
2022-12-18T03:50:33.512Z,-14.3
2022-12-18T03:51:33.511Z,-14.3
2022-12-18T03:52:33.519Z,-14.3
2022-12-18T03:53:33.511Z,-14.3
2022-12-18T03:54:33.560Z,-14.3
2022-12-18T03:55:33.517Z,-14.3
2022-12-18T03:56:33.548Z,-14.3
2022-12-18T03:57:33.515Z,-14.3
2022-12-18T03:58:33.523Z,-14.3
2022-12-18T03:59:33.513Z,-14.3
2022-12-18T04:00:33.541Z,-14.3
2022-12-18T04:01:33.678Z,-14.3
2022-12-18T04:02:33.685Z,-14.3
2022-12-18T04:03:33.683Z,-14.3
2022-12-18T04:04:33.661Z,-14.3
2022-12-18T04:05:33.549Z,-14.3
2022-12-18T04:06:33.595Z,-14.3
2022-12-18T04:07:33.641Z,-14.4
2022-12-18T04:08:33.614Z,-14.4
2022-12-18T04:09:33.619Z,-14.4
2022-12-18T04:10:33.563Z,-14.4
2022-12-18T04:11:33.562Z,-14.4
2022-12-18T04:12:33.562Z,-14.4
2022-12-18T04:13:33.583Z,-14.4
2022-12-18T04:14:33.589Z,-14.4
2022-12-18T04:15:33.653Z,-14.5
2022-12-18T04:16:33.602Z,-14.5
2022-12-18T04:17:33.563Z,-14.5
2022-12-18T04:18:33.597Z,-14.6
2022-12-18T04:19:33.701Z,-14.6
2022-12-18T04:20:33.741Z,-14.7
2022-12-18T04:21:33.589Z,-14.7
2022-12-18T04:22:33.592Z,-14.7
2022-12-18T04:23:33.589Z,-14.8
2022-12-18T04:24:33.591Z,-14.8
2022-12-18T04:25:33.593Z,-14.8
2022-12-18T04:26:33.667Z,-14.8
2022-12-18T04:27:33.632Z,-14.8
2022-12-18T04:28:33.637Z,-14.8
2022-12-18T04:29:33.646Z,-14.9
2022-12-18T04:30:33.634Z,-14.9
2022-12-18T04:31:33.806Z,-14.9
2022-12-18T04:32:33.665Z,-14.9
2022-12-18T04:33:33.712Z,-14.9
2022-12-18T04:34:33.677Z,-14.9
2022-12-18T04:35:33.714Z,-14.8
2022-12-18T04:36:33.783Z,-14.8
2022-12-18T04:37:33.666Z,-14.8
2022-12-18T04:38:33.671Z,-14.8
2022-12-18T04:39:33.640Z,-14.8
2022-12-18T04:40:33.656Z,-14.7
2022-12-18T04:41:33.683Z,-14.7
2022-12-18T04:42:33.777Z,-14.7
2022-12-18T04:43:33.729Z,-14.6
2022-12-18T04:44:33.698Z,-14.6
2022-12-18T04:45:33.737Z,-14.6
2022-12-18T04:46:33.772Z,-14.5
2022-12-18T04:47:33.695Z,-14.5
2022-12-18T04:48:33.645Z,-14.5
2022-12-18T04:49:33.652Z,-14.5
2022-12-18T04:50:33.647Z,-14.5
2022-12-18T04:51:33.749Z,-14.5
2022-12-18T04:52:33.788Z,-14.5
2022-12-18T04:53:33.666Z,-14.5
2022-12-18T04:54:33.717Z,-14.5
2022-12-18T04:55:33.664Z,-14.5
2022-12-18T04:56:33.746Z,-14.5
2022-12-18T04:57:33.693Z,-14.5
2022-12-18T04:58:33.685Z,-14.5
2022-12-18T04:59:33.729Z,-14.5
2022-12-18T05:00:33.677Z,-14.6
2022-12-18T05:01:34.906Z,-14.6
2022-12-18T05:02:33.777Z,-14.6
2022-12-18T05:03:33.738Z,-14.7
2022-12-18T05:04:33.688Z,-14.7
2022-12-18T05:05:33.692Z,-14.7
2022-12-18T05:06:33.735Z,-14.8
2022-12-18T05:07:33.686Z,-14.8
2022-12-18T05:08:33.808Z,-14.9
2022-12-18T05:09:33.798Z,-14.9
2022-12-18T05:10:37.906Z,-14.9
2022-12-18T05:11:33.831Z,-14.9
2022-12-18T05:12:33.713Z,-14.9
2022-12-18T05:13:33.745Z,-14.9
2022-12-18T05:14:33.716Z,-14.9
2022-12-18T05:15:33.794Z,-14.9
2022-12-18T05:16:33.771Z,-14.9
2022-12-18T05:17:33.747Z,-14.9
2022-12-18T05:18:33.717Z,-14.9
2022-12-18T05:19:33.742Z,-14.9
2022-12-18T05:20:33.729Z,-14.9
2022-12-18T05:21:33.752Z,-14.9
2022-12-18T05:22:33.713Z,-14.9
2022-12-18T05:23:33.791Z,-14.9
2022-12-18T05:24:33.857Z,-14.9
2022-12-18T05:25:33.809Z,-14.9
2022-12-18T05:26:33.877Z,-14.8
2022-12-18T05:27:33.811Z,-14.8
2022-12-18T05:28:33.804Z,-14.8
2022-12-18T05:29:33.814Z,-14.8
2022-12-18T05:30:33.821Z,-14.8
2022-12-18T05:31:39.015Z,-14.8
2022-12-18T05:32:33.779Z,-14.7
2022-12-18T05:33:33.954Z,-14.7
2022-12-18T05:34:33.788Z,-14.7
2022-12-18T05:35:34.255Z,-14.7
2022-12-18T05:36:33.815Z,-14.7
2022-12-18T05:37:36.924Z,-14.7
2022-12-18T05:38:33.813Z,-14.8
2022-12-18T05:39:33.953Z,-14.8
2022-12-18T05:40:33.952Z,-14.8
2022-12-18T05:41:33.841Z,-14.8
2022-12-18T05:42:33.815Z,-14.8
2022-12-18T05:43:33.795Z,-14.8
2022-12-18T05:44:33.795Z,-14.8
2022-12-18T05:45:33.800Z,-14.9
2022-12-18T05:46:34.031Z,-14.9
2022-12-18T05:47:33.835Z,-14.9
2022-12-18T05:48:33.813Z,-14.9
2022-12-18T05:49:33.836Z,-14.9
2022-12-18T05:50:33.816Z,-15
2022-12-18T05:51:33.871Z,-15
2022-12-18T05:52:33.802Z,-15
2022-12-18T05:53:33.856Z,-15
2022-12-18T05:54:33.800Z,-15
2022-12-18T05:55:33.855Z,-15
2022-12-18T05:56:33.971Z,-15
2022-12-18T05:57:33.832Z,-15
2022-12-18T05:58:33.823Z,-15
2022-12-18T05:59:33.832Z,-15
2022-12-18T06:00:33.800Z,-15
2022-12-18T06:01:33.861Z,-15
2022-12-18T06:02:33.943Z,-15
2022-12-18T06:03:34.278Z,-15
2022-12-18T06:04:33.833Z,-15.1
2022-12-18T06:05:33.836Z,-15.1
2022-12-18T06:06:33.843Z,-15.1
2022-12-18T06:07:34.075Z,-15.1
2022-12-18T06:08:33.848Z,-15.1
2022-12-18T06:09:33.874Z,-15.2
2022-12-18T06:10:33.851Z,-15.2
2022-12-18T06:11:33.940Z,-15.2
2022-12-18T06:12:34.000Z,-15.2
2022-12-18T06:13:33.884Z,-15.2
2022-12-18T06:14:33.876Z,-15.1
2022-12-18T06:15:33.888Z,-15.1
2022-12-18T06:16:33.950Z,-15.1
2022-12-18T06:17:33.919Z,-15.1
2022-12-18T06:18:33.866Z,-15
2022-12-18T06:19:33.886Z,-15
2022-12-18T06:20:34.207Z,-15
2022-12-18T06:21:33.925Z,-15
2022-12-18T06:22:33.878Z,-15
2022-12-18T06:23:33.881Z,-15
2022-12-18T06:24:33.872Z,-15
2022-12-18T06:25:33.889Z,-15
2022-12-18T06:26:33.889Z,-15
2022-12-18T06:27:33.966Z,-15
2022-12-18T06:28:34.012Z,-15
2022-12-18T06:29:33.964Z,-15.1
2022-12-18T06:30:33.908Z,-15.1
2022-12-18T06:31:34.051Z,-15.1
2022-12-18T06:32:33.914Z,-15.1
2022-12-18T06:33:33.969Z,-15.1
2022-12-18T06:34:33.936Z,-15.1
2022-12-18T06:35:33.916Z,-15.1
2022-12-18T06:36:33.968Z,-15.1
2022-12-18T06:37:33.965Z,-15.1
2022-12-18T06:38:33.925Z,-15.1
2022-12-18T06:39:34.084Z,-15.1
2022-12-18T06:40:33.916Z,-15.1
2022-12-18T06:41:33.968Z,-15.1
2022-12-18T06:42:33.936Z,-15.1
2022-12-18T06:43:33.962Z,-15.1
2022-12-18T06:44:34.047Z,-15.1
2022-12-18T06:45:34.019Z,-15.2
2022-12-18T06:46:33.967Z,-15.2
2022-12-18T06:47:34.035Z,-15.2
2022-12-18T06:48:33.973Z,-15.2
2022-12-18T06:49:33.979Z,-15.2
2022-12-18T06:50:33.975Z,-15.2
2022-12-18T06:51:33.981Z,-15.2
2022-12-18T06:52:33.974Z,-15.2
2022-12-18T06:53:33.972Z,-15.2
2022-12-18T06:54:33.969Z,-15.2
2022-12-18T06:55:33.969Z,-15.2
2022-12-18T06:56:33.982Z,-15.1
2022-12-18T06:57:33.978Z,-15.1
2022-12-18T06:58:34.020Z,-15.1
2022-12-18T06:59:34.092Z,-15.1
2022-12-18T07:00:34.104Z,-15.1
2022-12-18T07:01:34.149Z,-15.1
2022-12-18T07:02:34.211Z,-15.1
2022-12-18T07:03:34.244Z,-15.1
2022-12-18T07:04:34.022Z,-15.1
2022-12-18T07:05:34.091Z,-15.1
2022-12-18T07:06:34.050Z,-15.1
2022-12-18T07:07:34.092Z,-15.2
2022-12-18T07:08:34.042Z,-15.2
2022-12-18T07:09:34.040Z,-15.2
2022-12-18T07:10:33.999Z,-15.2
2022-12-18T07:11:34.056Z,-15.2
2022-12-18T07:12:34.034Z,-15.2
2022-12-18T07:13:34.036Z,-15.2
2022-12-18T07:14:34.048Z,-15.2
2022-12-18T07:15:34.101Z,-15.2
2022-12-18T07:16:34.224Z,-15.2
2022-12-18T07:17:34.095Z,-15.2
2022-12-18T07:18:34.042Z,-15.2
2022-12-18T07:19:34.120Z,-15.2
2022-12-18T07:20:34.020Z,-15.2
2022-12-18T07:21:34.084Z,-15.2
2022-12-18T07:22:34.036Z,-15.2
2022-12-18T07:23:34.137Z,-15.2
2022-12-18T07:24:34.028Z,-15.2
2022-12-18T07:25:34.078Z,-15.2
2022-12-18T07:26:34.086Z,-15.2
2022-12-18T07:27:34.140Z,-15.1
2022-12-18T07:28:34.048Z,-15.1
2022-12-18T07:29:34.097Z,-15.1
2022-12-18T07:30:34.046Z,-15.1
2022-12-18T07:31:34.402Z,-15.1
2022-12-18T07:32:34.217Z,-15.1
2022-12-18T07:33:34.045Z,-15.1
2022-12-18T07:34:34.044Z,-15.1
2022-12-18T07:35:34.160Z,-15.1
2022-12-18T07:36:34.066Z,-15.1
2022-12-18T07:37:34.064Z,-15.1
2022-12-18T07:38:34.064Z,-15.2
2022-12-18T07:39:34.110Z,-15.2
2022-12-18T07:40:34.073Z,-15.2
2022-12-18T07:41:34.153Z,-15.2
2022-12-18T07:42:34.062Z,-15.2
2022-12-18T07:43:34.065Z,-15.2
2022-12-18T07:44:34.067Z,-15.2
2022-12-18T07:45:34.247Z,-15.1
2022-12-18T07:46:34.096Z,-15.1
2022-12-18T07:47:34.135Z,-15.1
2022-12-18T07:48:34.189Z,-15.1
2022-12-18T07:49:34.132Z,-15
2022-12-18T07:50:34.072Z,-15
2022-12-18T07:51:34.203Z,-14.9
2022-12-18T07:52:34.092Z,-14.9
2022-12-18T07:53:34.109Z,-14.8
2022-12-18T07:54:34.093Z,-14.8
2022-12-18T07:55:48.097Z,-14.7
2022-12-18T07:56:34.157Z,-14.7
2022-12-18T07:57:49.780Z,-14.6
2022-12-18T07:58:34.109Z,-14.6
2022-12-18T07:59:34.111Z,-14.5
2022-12-18T08:00:34.115Z,-14.5
2022-12-18T08:01:34.253Z,-14.4
2022-12-18T08:02:34.353Z,-14.4
2022-12-18T08:03:34.158Z,-14.4
2022-12-18T08:04:34.231Z,-14.4
2022-12-18T08:05:34.174Z,-14.4
2022-12-18T08:06:34.164Z,-14.4
2022-12-18T08:07:34.129Z,-14.3
2022-12-18T08:08:34.169Z,-14.3
2022-12-18T08:09:34.193Z,-14.3
2022-12-18T08:10:34.114Z,-14.3
2022-12-18T08:11:34.166Z,-14.3
2022-12-18T08:12:34.174Z,-14.3
2022-12-18T08:13:34.221Z,-14.2
2022-12-18T08:14:34.136Z,-14.2
2022-12-18T08:15:34.190Z,-14.1
2022-12-18T08:16:34.268Z,-14.1
2022-12-18T08:17:34.181Z,-14
2022-12-18T08:18:34.174Z,-14
2022-12-18T08:19:34.232Z,-13.9
2022-12-18T08:20:34.270Z,-13.8
2022-12-18T08:21:34.194Z,-13.7
2022-12-18T08:22:34.195Z,-13.6
2022-12-18T08:23:36.893Z,-13.5
2022-12-18T08:24:34.196Z,-13.5
2022-12-18T08:25:34.196Z,-13.4
2022-12-18T08:26:34.196Z,-13.3
2022-12-18T08:27:34.238Z,-13.2
2022-12-18T08:28:34.198Z,-13.2
2022-12-18T08:29:34.266Z,-13.1
2022-12-18T08:30:34.229Z,-13.1
2022-12-18T08:31:34.323Z,-12.9
2022-12-18T08:32:34.179Z,-12.8
2022-12-18T08:33:34.183Z,-12.7
2022-12-18T08:34:34.180Z,-12.6
2022-12-18T08:35:37.921Z,-12.5
2022-12-18T08:36:34.413Z,-12.4
2022-12-18T08:37:34.204Z,-12.4
2022-12-18T08:38:34.246Z,-12.4
2022-12-18T08:39:34.258Z,-12.3
2022-12-18T08:40:34.210Z,-12.3
2022-12-18T08:41:34.284Z,-12.2
2022-12-18T08:42:34.205Z,-12.1
2022-12-18T08:43:34.208Z,-12.2
2022-12-18T08:44:34.214Z,-12.2
2022-12-18T08:45:34.209Z,-12.3
2022-12-18T08:46:34.290Z,-12.3
2022-12-18T08:47:34.206Z,-12.4
2022-12-18T08:48:34.275Z,-12.4
2022-12-18T08:49:34.288Z,-12.4
2022-12-18T08:50:34.210Z,-12.4
2022-12-18T08:51:34.297Z,-12.4
2022-12-18T08:52:34.441Z,-12.4
2022-12-18T08:53:35.854Z,-12.3
2022-12-18T08:54:34.235Z,-12.3
2022-12-18T08:55:34.256Z,-12.4
2022-12-18T08:56:34.248Z,-12.4
2022-12-18T08:57:34.324Z,-12.4
2022-12-18T08:58:34.236Z,-12.3
2022-12-18T08:59:34.260Z,-12.1
2022-12-18T09:00:34.314Z,-12.1
2022-12-18T09:01:34.401Z,-11.9
2022-12-18T09:02:34.356Z,-11.9
2022-12-18T09:03:34.301Z,-11.8
2022-12-18T09:04:34.246Z,-11.7
2022-12-18T09:05:34.258Z,-11.6
2022-12-18T09:06:34.254Z,-11.6
2022-12-18T09:07:34.257Z,-11.6
2022-12-18T09:08:34.362Z,-11.6
2022-12-18T09:09:34.252Z,-11.5
2022-12-18T09:10:36.546Z,-11.5
2022-12-18T09:11:34.313Z,-11.4
2022-12-18T09:12:34.260Z,-11.4
2022-12-18T09:13:34.253Z,-11.4
2022-12-18T09:14:34.258Z,-11.5
2022-12-18T09:15:34.306Z,-11.4
2022-12-18T09:16:34.301Z,-11.4
2022-12-18T09:17:34.311Z,-11.3
2022-12-18T09:18:34.254Z,-11.3
2022-12-18T09:19:34.253Z,-11.2
2022-12-18T09:20:34.405Z,-11.2
2022-12-18T09:21:36.729Z,-11.3
2022-12-18T09:22:34.285Z,-11.3
2022-12-18T09:23:34.314Z,-11.3
2022-12-18T09:24:34.403Z,-11.3
2022-12-18T09:25:34.401Z,-11.1
2022-12-18T09:26:34.381Z,-11
2022-12-18T09:27:34.290Z,-10.9
2022-12-18T09:28:34.293Z,-10.9
2022-12-18T09:29:34.300Z,-10.9
2022-12-18T09:30:34.371Z,-10.8
2022-12-18T09:31:34.406Z,-10.7
2022-12-18T09:32:34.296Z,-10.6
2022-12-18T09:33:34.303Z,-10.5
2022-12-18T09:34:34.317Z,-10.5
2022-12-18T09:35:34.351Z,-10.5
2022-12-18T09:36:34.359Z,-10.5
2022-12-18T09:37:34.351Z,-10.6
2022-12-18T09:38:34.301Z,-10.6
2022-12-18T09:39:34.343Z,-10.7
2022-12-18T09:40:34.463Z,-10.7
2022-12-18T09:41:34.403Z,-10.7
2022-12-18T09:42:34.352Z,-10.7
2022-12-18T09:43:34.351Z,-10.7
2022-12-18T09:44:34.397Z,-10.7
2022-12-18T09:45:34.413Z,-10.7
2022-12-18T09:46:34.389Z,-10.7
2022-12-18T09:47:34.427Z,-10.7
2022-12-18T09:48:34.333Z,-10.7
2022-12-18T09:49:34.407Z,-10.6
2022-12-18T09:50:34.341Z,-10.6
2022-12-18T09:51:34.409Z,-10.6
2022-12-18T09:52:34.340Z,-10.6
2022-12-18T09:53:34.395Z,-10.6
2022-12-18T09:54:34.367Z,-10.6
2022-12-18T09:55:37.321Z,-10.5
2022-12-18T09:56:34.472Z,-10.5
2022-12-18T09:57:34.457Z,-10.5
2022-12-18T09:58:34.413Z,-10.4
2022-12-18T09:59:34.484Z,-10.4
2022-12-18T10:00:34.380Z,-10.4
2022-12-18T10:01:41.647Z,-10.3
2022-12-18T10:02:34.547Z,-10.3
2022-12-18T10:03:34.440Z,-10.2
2022-12-18T10:04:34.423Z,-10.2
2022-12-18T10:05:34.444Z,-10.1
2022-12-18T10:06:34.400Z,-10.1
2022-12-18T10:07:34.456Z,-10
2022-12-18T10:08:34.446Z,-10
2022-12-18T10:09:34.520Z,-9.9
2022-12-18T10:10:34.428Z,-9.9
2022-12-18T10:11:34.516Z,-9.9
2022-12-18T10:12:34.640Z,-9.8
2022-12-18T10:13:34.561Z,-9.8
2022-12-18T10:14:34.477Z,-9.7
2022-12-18T10:15:34.549Z,-9.7
2022-12-18T10:16:34.482Z,-9.6
2022-12-18T10:17:34.483Z,-9.6
2022-12-18T10:18:34.537Z,-9.5
2022-12-18T10:19:34.495Z,-9.5
2022-12-18T10:20:34.497Z,-9.5
2022-12-18T10:21:34.504Z,-9.3
2022-12-18T10:22:34.495Z,-9.2
2022-12-18T10:23:34.497Z,-9.1
2022-12-18T10:24:34.495Z,-9
2022-12-18T10:25:34.498Z,-8.9
2022-12-18T10:26:34.543Z,-8.9
2022-12-18T10:27:34.500Z,-8.9
2022-12-18T10:28:34.608Z,-8.9
2022-12-18T10:29:34.642Z,-8.8
2022-12-18T10:30:34.561Z,-8.8
2022-12-18T10:31:34.611Z,-8.8
2022-12-18T10:32:34.565Z,-8.9
2022-12-18T10:33:34.526Z,-9
2022-12-18T10:34:34.508Z,-8.9
2022-12-18T10:35:34.515Z,-8.9
2022-12-18T10:36:34.546Z,-8.9
2022-12-18T10:37:34.656Z,-8.9
2022-12-18T10:38:34.594Z,-8.9
2022-12-18T10:39:34.590Z,-9
2022-12-18T10:40:34.568Z,-9
2022-12-18T10:41:34.643Z,-9
2022-12-18T10:42:34.576Z,-9
2022-12-18T10:43:34.583Z,-8.9
2022-12-18T10:44:34.658Z,-8.9
2022-12-18T10:45:34.588Z,-8.8
2022-12-18T10:46:34.639Z,-8.7
2022-12-18T10:47:34.561Z,-8.7
2022-12-18T10:48:34.558Z,-8.6
2022-12-18T10:49:34.605Z,-8.4
2022-12-18T10:51:08.970Z,-8.3
2022-12-18T10:51:34.698Z,-8.2
2022-12-18T10:52:34.659Z,-8.1
2022-12-18T10:53:34.647Z,-8
2022-12-18T10:54:34.577Z,-7.9
2022-12-18T10:55:34.579Z,-7.9
2022-12-18T10:56:34.626Z,-8
2022-12-18T10:57:34.596Z,-7.9
2022-12-18T10:58:34.586Z,-7.9
2022-12-18T10:59:34.592Z,-7.9
2022-12-18T11:00:34.696Z,-8
2022-12-18T11:01:34.697Z,-8
2022-12-18T11:02:34.785Z,-8
2022-12-18T11:03:34.604Z,-8
2022-12-18T11:04:34.591Z,-8
2022-12-18T11:05:34.591Z,-7.9
2022-12-18T11:06:34.618Z,-7.9
2022-12-18T11:07:34.592Z,-7.8
2022-12-18T11:08:34.590Z,-7.8
2022-12-18T11:09:34.740Z,-7.7
2022-12-18T11:10:34.652Z,-7.6
2022-12-18T11:11:34.703Z,-7.5
2022-12-18T11:12:34.632Z,-7.5
2022-12-18T11:13:34.759Z,-7.4
2022-12-18T11:14:34.622Z,-7.4
2022-12-18T11:15:34.625Z,-7.3
2022-12-18T11:16:34.812Z,-7.3
2022-12-18T11:17:34.670Z,-7.3
2022-12-18T11:18:34.655Z,-7.3
2022-12-18T11:19:34.685Z,-7.2
2022-12-18T11:20:34.627Z,-7.2
2022-12-18T11:21:34.723Z,-7.3
2022-12-18T11:22:34.689Z,-7.3
2022-12-18T11:23:34.723Z,-7.3
2022-12-18T11:24:34.679Z,17.2
2022-12-18T11:25:35.880Z,17.2
2022-12-18T11:26:34.748Z,17.2
2022-12-18T11:27:35.054Z,17.2
2022-12-18T11:28:34.719Z,17.2
2022-12-18T11:29:34.732Z,17.3
2022-12-18T11:30:34.728Z,17.3
2022-12-18T11:31:34.856Z,17.3
2022-12-18T11:32:34.843Z,17.4
2022-12-18T11:33:34.810Z,17.4
2022-12-18T11:34:34.732Z,17.5
2022-12-18T11:35:34.812Z,17.6
2022-12-18T11:36:34.735Z,17.6
2022-12-18T11:37:34.750Z,17.6
2022-12-18T11:38:34.705Z,17.7
2022-12-18T11:39:34.744Z,17.7
2022-12-18T11:40:39.391Z,17.8
2022-12-18T11:41:34.772Z,17.8
2022-12-18T11:42:34.881Z,17.8
2022-12-18T11:43:34.724Z,17.9
2022-12-18T11:44:34.723Z,17.9
2022-12-18T11:45:34.735Z,17.9
2022-12-18T11:46:34.767Z,17.9
2022-12-18T11:47:34.752Z,17.9
2022-12-18T11:48:34.856Z,18
2022-12-18T11:49:34.734Z,18
2022-12-18T11:50:34.726Z,18
2022-12-18T11:51:34.788Z,18
2022-12-18T11:52:34.734Z,18
2022-12-18T11:53:34.746Z,18.1
2022-12-18T11:54:34.735Z,18.1
2022-12-18T11:55:34.738Z,-5.7
2022-12-18T11:56:34.852Z,-5.7
2022-12-18T11:57:34.743Z,-5.7
2022-12-18T11:58:34.751Z,-5.6
2022-12-18T11:59:34.752Z,-5.6
2022-12-18T12:00:34.745Z,-5.6
2022-12-18T12:01:37.702Z,-5.6
2022-12-18T12:02:34.865Z,-5.5
2022-12-18T12:03:34.755Z,-5.5
2022-12-18T12:04:34.920Z,-5.4
2022-12-18T12:05:34.836Z,-5.4
2022-12-18T12:06:34.774Z,-5.3
2022-12-18T12:07:34.796Z,-5.3
2022-12-18T12:08:34.799Z,-5.2
2022-12-18T12:09:34.792Z,-5.1
2022-12-18T12:10:34.799Z,-5
2022-12-18T12:11:34.797Z,-4.9
2022-12-18T12:12:34.755Z,-4.8
2022-12-18T12:13:34.794Z,-4.7
2022-12-18T12:14:34.822Z,-4.6
2022-12-18T12:15:34.799Z,-4.5
2022-12-18T12:16:34.867Z,-4.5
2022-12-18T12:17:34.767Z,-4.4
2022-12-18T12:18:34.768Z,-4.3
2022-12-18T12:19:34.771Z,-4.3
2022-12-18T12:20:36.180Z,-4.2
2022-12-18T12:21:34.807Z,-4.1
2022-12-18T12:22:34.761Z,-4.1
2022-12-18T12:23:34.807Z,-4
2022-12-18T12:24:34.769Z,-3.9
2022-12-18T12:25:34.904Z,-3.8
2022-12-18T12:26:34.842Z,-3.7
2022-12-18T12:27:34.918Z,-3.6
2022-12-18T12:28:34.842Z,-3.5
2022-12-18T12:29:34.820Z,-3.4
2022-12-18T12:30:34.845Z,-3.3
2022-12-18T12:31:34.990Z,-3.2
2022-12-18T12:32:34.808Z,-3.1
2022-12-18T12:33:34.809Z,-3
2022-12-18T12:34:34.844Z,-3
2022-12-18T12:35:34.829Z,-2.9
2022-12-18T12:36:34.963Z,-2.8
2022-12-18T12:37:34.813Z,-2.7
2022-12-18T12:38:34.811Z,-2.7
2022-12-18T12:39:34.875Z,18.4
2022-12-18T12:40:52.349Z,18.4
2022-12-18T12:41:34.988Z,18.4
2022-12-18T12:42:34.887Z,18.4
2022-12-18T12:43:34.901Z,18.4
2022-12-18T12:44:34.854Z,18.4
2022-12-18T12:45:34.932Z,18.4
2022-12-18T12:46:34.946Z,-2.5
2022-12-18T12:47:34.917Z,18.5
2022-12-18T12:48:34.873Z,18.6
2022-12-18T12:49:38.988Z,18.7
2022-12-18T12:50:34.877Z,18.8
2022-12-18T12:51:34.921Z,18.9
2022-12-18T12:52:35.064Z,19
2022-12-18T12:53:34.878Z,19.1
2022-12-18T12:54:34.878Z,19.2
2022-12-18T12:55:34.921Z,19.3
2022-12-18T12:56:34.914Z,19.4
2022-12-18T12:57:34.880Z,19.4
2022-12-18T12:58:35.000Z,19.4
2022-12-18T12:59:34.923Z,19.4
2022-12-18T13:00:34.908Z,19.4
2022-12-18T13:01:35.062Z,19.4
2022-12-18T13:02:35.019Z,19.4